x

Tillamook, Or - 85 Nm Wnw Of Tillamook, Or (46089) Wave Buoy

1:50am - Sat 20th Sep 2014 All times are PDT. -7 hours from GMT.

  • Sig Wave height 9.8ft
  • Swell Direction
  • Peak Period 12s
  • Average Period 9s
  • Wind
    13mph, 20mph gusts
  • Sea Temp 64°f
  • Air Temp 62°f
  • Sea Pressure 1018.9mb
  • Tillamook, Or - 85 Nm Wnw Of Tillamook, Or
  • Tillamook, Or - 85 Nm Wnw Of Tillamook, Or

More Historic Weather Station data

Upgrade to MSW Pro to gain access to the past 30 days of data for over 8000 Wavebouys and Weather Stations around the globe.

Join Pro

Comparision Forecast

View Surf forecast
   
Sat 09/20 1:50am 10ft 12s 9s 13 20 mph 1018.9mb 64f 62f
12:50am 9ft 11s 8s 11 16 mph 1018.9mb 64f 62f
Fri 09/19 11:50pm 8ft 10s 8s 11 16 mph 1019.1mb 64f 62f
10:50pm 6.5ft 14s 7s 13 18 mph 1019.1mb 65f 62f
9:50pm 6ft 10s 8s 13 18 mph 1019.2mb 65f 63f
8:50pm 6ft 9s 8s 11 13 mph 1019mb 65f 63f
7:50pm 5ft 9s 7s 11 16 mph 1018.7mb 65f 63f
6:50pm 5ft 15s 8s 9 11 mph 1018.8mb 65f 64f
5:50pm 5.5ft 16s 8s 9
mph
1019.1mb 65f 65f
4:50pm 5ft 9s 8s 7 9 mph 1019.2mb 65f 65f
3:50pm 5ft 16s 8s 7 9 mph 1019.3mb 65f 65f
2:50pm 5ft 16s 7s 7 9 mph 1019.3mb 65f 65f
1:50pm 5ft 16s 7s 4 7 mph 1019.6mb 65f 65f
12:50pm 5ft 16s 7s 2 4 mph 1019.4mb 65f 65f
11:50am 5ft 16s 7s 7 9 mph 1019.1mb 64f 64f
10:50am 4.5ft 16s 8s 7 9 mph 1018.6mb 64f 64f
9:50am 4.5ft 16s 8s 7 9 mph 1018.3mb 64f 64f
8:50am 4.5ft 9s 7s 7 11 mph 1017.9mb 64f 63f
7:50am 5ft 16s 8s 7 9 mph 1017.5mb 64f 63f
6:50am 5ft 16s 8s 9
mph
1017mb 64f 64f
5:50am 5ft 16s 8s 9 11 mph 1016.7mb 64f 64f
4:50am 5ft 16s 8s 9 11 mph 1016.6mb 64f 64f
3:50am 5ft 16s 8s 9 11 mph 1016.3mb 64f 64f
2:50am 4.5ft 16s 8s 9 11 mph 1016.1mb 64f 64f
1:50am 5ft 16s 9s 9 11 mph 1016mb 64f 64f
12:50am 5ft 9s 8s 7 9 mph 1015.7mb 64f 64f
Thu 09/18 11:50pm 5ft 16s 8s 4 7 mph 1015.3mb 64f 64f
10:50pm 6ft 8s 8s 7 9 mph 1015.4mb 64f 64f
9:50pm 5.5ft 8s 8s 7 9 mph 1014.6mb 64f 64f
8:50pm 6ft 17s 8s 4 7 mph 1014.1mb 64f 64f
7:50pm 5ft 9s 8s 7
mph
1013.5mb 64f 64f
6:50pm 5.5ft 17s 8s 7
mph
1012.8mb 64f 64f
5:50pm 6ft 16s 8s 7 9 mph 1012.6mb 64f 64f
4:50pm 5ft 17s 8s 9 11 mph 1012.4mb 64f 64f
3:50pm 5.5ft 17s 8s 9 11 mph 1011.9mb 64f 64f
2:50pm 5.5ft 17s 9s 7 9 mph 1011.6mb 64f 64f
1:50pm 5.5ft 17s 9s 7 9 mph 1011.5mb 64f 64f
12:50pm 6.5ft 17s 9s 7 9 mph 1010.9mb 64f 64f
11:50am 6ft 9s 9s 7 9 mph 1010.7mb 64f 64f
10:50am 6ft 10s 9s 7 9 mph 1010.4mb 64f 63f
9:50am 6ft 11s 9s 4 7 mph 1009.7mb 64f 63f
8:50am 6ft 11s 9s 4 7 mph 1009mb 64f 63f
7:50am 6.5ft 17s 9s 7
mph
1008.4mb 64f 62f
6:50am 6.5ft 9s 9s 7 9 mph 1007.7mb 64f 62f
5:50am 6ft 11s 9s 7 9 mph 1007.5mb 64f 63f
4:50am 6ft 17s 10s 7 9 mph 1007.5mb 64f 63f
3:50am 6ft 17s 10s 7 9 mph 1007.3mb 64f 62f
2:50am 5ft 17s 10s 4 7 mph 1007.3mb 64f 61f
1:50am 5.5ft 17s 10s 7 9 mph 1007.2mb 64f 61f
12:50am 5.5ft 11s 10s 7 9 mph 1007.2mb 64f 62f
Wed 09/17 11:50pm 5.5ft 11s 10s 4 7 mph 1007.3mb 64f 63f
10:50pm 6ft 12s 10s 4 7 mph 1007.5mb 64f 63f
9:50pm 5ft 19s 10s 4 7 mph 1007.3mb 64f 63f
8:50pm 6ft 17s 10s  -  2 mph 1007mb 64f 63f
7:50pm 6ft 12s 10s  -  2 mph 1006.7mb 64f 62f
6:50pm 6ft 19s 11s 2 4 mph 1006.8mb 65f 63f
5:50pm 7ft 13s 11s 4 7 mph 1007.5mb 65f 63f
4:50pm 6ft 13s 10s 2 4 mph 1007.4mb 65f 62f
3:50pm 5.5ft 13s 10s 2 4 mph 1007.2mb 65f 63f
2:50pm 7ft 12s 10s 2 4 mph 1007.1mb 64f 63f
1:50pm 6.5ft 12s 10s 2 4 mph 1007.4mb 64f 63f
12:50pm 7ft 12s 10s 2 4 mph 1007.8mb 64f 63f
11:50am 7ft 13s 10s 2 4 mph 1007.6mb 64f 63f
10:50am 6.5ft 13s 10s 2 4 mph 1006.8mb 64f 62f
9:50am 6ft 13s 9s 2 4 mph 1007.1mb 64f 62f
8:50am 7ft 14s 9s 7 9 mph 1007.6mb 64f 62f
7:50am 6.5ft 12s 9s 7 9 mph 1007.3mb 64f 62f
6:50am 6ft 13s 9s 7 9 mph 1007.3mb 64f 62f
5:50am 6ft 14s 9s 7 11 mph 1007.2mb 64f 62f
4:50am 6.5ft 13s 10s 7 9 mph 1007.4mb 64f 62f
3:50am 6ft 12s 9s 9 11 mph 1007.9mb 64f 63f
2:50am 7ft 19s 10s 9 11 mph 1008.7mb 64f 63f
1:50am 7ft 14s 9s 9 11 mph 1008.9mb 64f 63f
12:50am 6.5ft 13s 9s 9 11 mph 1009.5mb 64f 63f
Tue 09/16 11:50pm 7.5ft 14s 9s 7 11 mph 1009.7mb 64f 63f
10:50pm 7ft 13s 8s 9 11 mph 1009.9mb 64f 63f
9:50pm 8ft 14s 9s 9 13 mph 1010mb 64f 63f
8:50pm 7ft 13s 9s 9 13 mph 1010.2mb 64f 63f
7:50pm 8ft 14s 9s 9 13 mph 1010.1mb 64f 63f
6:50pm 7ft 14s 8s 9 13 mph 1010.2mb 64f 62f
5:50pm 8ft 14s 8s 11 13 mph 1010.5mb 64f 63f
4:50pm 7ft 15s 8s 11 13 mph 1010.9mb 64f 63f
3:50pm 7ft 15s 8s 11 18 mph 1011.2mb 64f 63f
2:50pm 5.5ft 15s 6s 13 18 mph 1011.6mb 64f 62f
1:50pm 5.5ft 15s 7s 11 16 mph 1012mb 64f 63f
12:50pm 5ft 16s 7s 11 13 mph 1011.8mb 63f 63f
11:50am 4ft 15s 6s 13 18 mph 1011.8mb 63f 63f
10:50am 4.5ft 15s 6s 11 16 mph 1011.5mb 63f 63f